Latest Weather Observations for Avalon

IDV60801

Issued at 7:32 pm EST Friday 30 September 2016 (issued every 30 minutes, with the page automatically refreshed every 10 minutes)

About weather observations | Map of weather stations | Latest weather observations for VIC | Other Formats
Station Details ID: 087113 Name: AVALON AIRPORT Lat: -38.03 Lon: 144.48 Height: 10.6 m
Data from the previous 72 hours. | See also: Recent months at Avalon
Date/Time
EST
Temp
°C
App
Temp
°C
Dew
Point
°C
Rel
Hum
%
Delta-T
°C
Wind Press
QNH
hPa
Press
MSL
hPa
Rain since
9am
mm
Dir  Spd
km/h
Gust
km/h
Spd
kts
Gust
kts
30/07:30pm 9.7 7.9 9.6 99 0.1 NNW 9 11 5 6 996.9 996.9 0.6
30/07:00pm 10.2 8.6 10.1 99 0.1 NNW 9 11 5 6 996.4 996.4 0.6
30/06:30pm 11.3 10.3 10.4 94 0.5 NW 6 7 3 4 996.0 996.0 0.6
30/06:00pm 11.7 11.3 9.9 89 0.9 SSW 2 7 1 4 995.8 995.8 0.6
30/05:30pm 11.8 9.1 10.2 90 0.8 SSW 15 22 8 12 995.5 995.5 0.6
30/05:00pm 12.3 10.3 11.4 94 0.5 S 13 17 7 9 995.0 995.0 0.4
30/04:30pm 13.3 10.7 10.8 85 1.3 S 15 20 8 11 994.6 994.6 0.0
30/04:00pm 14.0 11.1 9.8 76 2.2 S 15 20 8 11 994.1 994.1 0.0
30/03:30pm 14.9 12.7 10.7 76 2.2 S 13 19 7 10 993.7 993.7 0.0
30/03:00pm 14.5 11.8 9.1 70 2.8 SSW 13 20 7 11 993.3 993.3 0.0
30/02:30pm 15.2 12.6 9.3 68 3.0 S 13 19 7 10 993.2 993.2 0.0
30/02:00pm 14.2 11.1 8.8 70 2.8 S 15 20 8 11 993.1 993.1 0.0
30/01:30pm 15.6 12.1 10.2 70 2.8 S 19 24 10 13 992.9 992.9 0.0
30/01:00pm 15.5 12.5 9.4 67 3.2 SW 15 24 8 13 992.6 992.6 0.0
30/12:30pm 14.9 12.3 9.3 69 2.9 SSW 13 17 7 9 992.4 992.4 0.0
30/12:00pm 14.9 12.3 7.7 62 3.6 W 11 22 6 12 992.4 992.4 0.0
30/11:30am 14.9 13.0 9.1 68 3.0 W 9 15 5 8 992.4 992.4 0.0
30/11:00am 14.1 11.7 8.5 69 2.8 W 11 17 6 9 992.5 992.5 0.0
30/10:30am 13.3 11.5 8.0 70 2.6 W 7 13 4 7 992.5 992.5 0.0
30/10:00am 11.9 9.9 8.6 80 1.7 W 9 13 5 7 992.4 992.4 0.0
30/09:30am 13.0 11.2 9.6 80 1.7 W 9 13 5 7 992.1 992.1 0.0
30/09:14am 11.6 9.3 9.0 84 1.3 WSW 11 15 6 8 992.1 992.1 0.0
30/09:00am 11.2 8.6 9.5 89 0.9 W 13 17 7 9 991.9 991.9 0.0
30/08:39am 10.5 7.6 9.6 94 0.5 WNW 15 19 8 10 991.7 991.7 0.0
30/08:30am 10.7 8.4 10.5 99 0.1 W 13 19 7 10 991.4 991.4 0.0
30/08:00am 8.6 6.2 8.6 100 0.0 NW 11 13 6 7 990.9 990.9 0.0
30/07:30am 7.6 5.3 7.6 100 0.0 NW 9 11 5 6 990.3 990.3 0.0
30/07:00am 7.2 4.8 7.1 99 0.0 NNW 9 11 5 6 990.0 990.0 0.0
30/06:30am 6.8 4.7 6.7 99 0.0 N 7 11 4 6 989.8 989.8 0.0
30/06:00am 7.2 4.8 7.1 99 0.0 N 9 11 5 6 989.3 989.3 0.0
30/05:30am 7.8 6.1 7.7 99 0.0 NNE 6 9 3 5 989.0 989.0 0.0
30/05:00am 8.5 6.0 8.2 98 0.1 NE 11 13 6 7 988.5 988.5 0.0
30/04:30am 9.3 6.5 8.5 95 0.4 ENE 13 17 7 9 988.2 988.2 0.0
30/04:00am 10.2 6.4 9.1 93 0.6 ENE 19 22 10 12 988.0 988.0 0.0
30/03:30am 10.3 6.4 9.4 94 0.4 ENE 20 26 11 14 987.9 987.9 0.0
30/03:00am 10.5 6.8 9.4 93 0.6 ENE 19 24 10 13 988.0 988.0 0.0
30/02:30am 10.5 6.1 8.9 90 0.8 ENE 22 32 12 17 988.0 988.0 0.0
30/02:00am 10.5 6.4 8.6 88 0.9 E 20 26 11 14 988.0 988.0 0.0
30/01:30am 10.3 6.7 8.2 87 1.0 E 17 28 9 15 988.2 988.2 0.0
30/01:00am 10.2 5.6 8.1 87 1.0 E 22 28 12 15 988.1 988.1 0.0
30/12:30am 10.0 5.4 6.7 80 1.5 ENE 20 24 11 13 988.1 988.1 0.0
30/12:00am 9.9 5.6 6.8 81 1.5 E 19 24 10 13 988.2 988.2 0.0
 
Date/Time
EST
Temp
°C
App
Temp
°C
Dew
Point
°C
Rel
Hum
%
Delta-T
°C
Wind Press
QNH
hPa
Press
MSL
hPa
Rain since
9am
mm
Dir  Spd
km/h
Gust
km/h
Spd
kts
Gust
kts
29/11:30pm 10.2 5.8 7.3 82 1.4 ENE 20 28 11 15 988.5 988.5 0.0
29/11:00pm 9.8 6.0 7.4 85 1.2 E 17 22 9 12 988.6 988.6 0.0
29/10:30pm 9.2 5.6 6.6 84 1.2 E 15 22 8 12 988.9 988.9 0.0
29/10:00pm 9.4 5.8 6.8 84 1.2 E 15 20 8 11 989.1 989.1 0.0
29/09:30pm 10.1 5.1 6.4 78 1.7 ENE 22 26 12 14 989.3 989.3 0.0
29/09:00pm 10.1 5.5 6.4 78 1.7 ENE 20 26 11 14 989.5 989.5 0.0
29/08:30pm 10.4 6.4 6.5 77 1.8 ENE 17 20 9 11 989.8 989.8 0.0
29/08:00pm 9.6 6.3 6.5 81 1.5 E 13 17 7 9 990.1 990.1 0.0
29/07:30pm 10.1 6.4 6.3 77 1.8 NNE 15 22 8 12 990.0 990.0 0.0
29/07:00pm 10.5 5.4 5.9 73 2.2 NNE 22 30 12 16 989.6 989.6 0.0
29/06:30pm 10.4 5.9 6.9 79 1.7 NE 20 30 11 16 989.3 989.3 0.0
29/06:00pm 10.8 6.4 6.6 75 2.0 NNE 19 26 10 14 989.2 989.2 0.0
29/05:30pm 11.5 6.6 6.8 73 2.2 N 22 32 12 17 989.2 989.2 0.0
29/05:00pm 11.5 7.7 7.4 76 2.0 N 17 24 9 13 988.7 988.7 0.0
29/04:30pm 12.3 9.1 7.0 70 2.5 NNE 13 17 7 9 988.3 988.3 0.0
29/04:00pm 13.4 8.8 6.3 62 3.4 NNW 20 26 11 14 988.1 988.1 0.0
29/03:30pm 13.7 7.4 5.8 59 3.7 N 28 35 15 19 987.8 987.8 0.0
29/03:00pm 14.3 8.0 5.7 56 4.1 N 28 35 15 19 987.8 987.8 0.0
29/02:30pm 15.8 8.9 4.5 47 5.3 N 30 43 16 23 987.6 987.6 0.0
29/02:00pm 16.1 9.6 4.5 46 5.5 N 28 39 15 21 987.9 987.9 0.0
29/01:30pm 15.2 10.0 5.4 52 4.7 N 22 32 12 17 988.3 988.3 0.0
29/01:00pm 15.6 8.5 5.5 51 4.9 N 32 43 17 23 988.6 988.6 0.0
29/12:30pm 14.7 8.7 5.2 53 4.5 NNW 26 39 14 21 989.0 989.0 0.0
29/12:00pm 15.5 9.2 5.7 52 4.7 NNW 28 41 15 22 989.1 989.1 0.0
29/11:30am 15.8 9.4 6.8 55 4.4 NNW 30 41 16 22 989.0 989.0 0.0
29/11:00am 15.4 8.4 6.2 54 4.5 N 32 44 17 24 989.2 989.2 0.0
29/10:30am 15.5 10.2 8.3 62 3.6 NNW 26 37 14 20 989.1 989.1 0.0
29/10:00am 14.5 9.4 7.5 63 3.5 NNW 24 32 13 17 988.7 988.7 0.0
29/09:30am 14.1 7.8 7.6 65 3.2 NW 30 39 16 21 988.6 988.6 0.0
29/09:00am 13.2 6.9 7.6 69 2.8 NW 30 39 16 21 989.3 989.3 2.4
29/08:30am 13.2 7.7 7.6 69 2.7 NNW 26 33 14 18 989.1 989.1 2.4
29/08:00am 12.6 8.6 8.3 75 2.2 NW 19 26 10 14 988.9 988.9 2.4
29/07:30am 12.3 10.2 9.7 84 1.3 NW 11 13 6 7 988.9 988.9 2.4
29/07:00am 12.7 10.4 10.6 87 1.1 NNW 13 20 7 11 988.9 988.9 2.4
29/06:30am 12.6 10.5 11.2 91 0.7 N 13 17 7 9 988.0 988.0 2.4
29/06:00am 13.0 9.8 11.1 88 1.0 NNE 19 26 10 14 987.2 987.2 2.4
29/05:30am 13.2 9.5 11.4 89 1.0 NNE 22 30 12 16 987.5 987.5 2.4
29/05:00am 13.1 8.5 11.0 87 1.1 NNE 26 35 14 19 987.7 987.7 2.4
29/04:30am 12.8 8.6 11.2 90 0.8 NNE 24 35 13 19 987.5 987.5 2.4
29/04:00am 13.2 7.0 11.3 88 1.0 NE 35 48 19 26 987.7 987.7 2.4
29/03:30am 13.3 5.8 11.0 86 1.2 NNE 41 54 22 29 988.1 988.1 2.4
29/03:00am 13.2 6.6 11.3 88 1.0 NNE 37 56 20 30 988.2 988.2 2.4
29/02:40am 13.0 5.7 11.7 92 0.7 NE 41 59 22 32 987.9 987.9 2.4
29/02:30am 12.7 7.0 11.8 94 0.5 NE 33 44 18 24 988.7 988.7 2.4
29/02:00am 12.6 7.7 11.2 91 0.7 NE 28 46 15 25 990.6 990.6 1.8
29/01:54am 12.8 7.9 11.2 90 0.8 NE 28 46 15 25 990.8 990.8 1.6
29/01:50am 12.8 7.8 11.0 89 0.9 NE 28 43 15 23 990.9 990.9 1.6
29/01:30am 12.4 9.2 11.3 93 0.6 NE 19 24 10 13 991.6 991.6 1.4
29/01:00am 12.5 9.1 11.1 91 0.7 NNE 20 28 11 15 992.4 992.4 1.4
29/12:30am 12.9 8.2 10.8 87 1.1 NE 26 35 14 19 992.8 992.8 1.2
29/12:00am 13.6 9.1 10.2 80 1.8 ENE 24 37 13 20 993.1 993.1 0.4
 
Date/Time
EST
Temp
°C
App
Temp
°C
Dew
Point
°C
Rel
Hum
%
Delta-T
°C
Wind Press
QNH
hPa
Press
MSL
hPa
Rain since
9am
mm
Dir  Spd
km/h
Gust
km/h
Spd
kts
Gust
kts
28/11:30pm 13.8 9.3 10.0 78 2.0 NE 24 33 13 18 994.5 994.5 0.0
28/11:00pm 14.8 9.3 9.2 69 2.9 NE 28 37 15 20 995.1 995.1 0.0
28/10:30pm 14.7 9.6 9.1 69 2.9 NE 26 39 14 21 996.4 996.4 0.0
28/10:00pm 14.8 10.0 9.0 68 3.0 NE 24 39 13 21 997.8 997.8 0.0
28/09:30pm 14.7 10.6 8.6 67 3.1 NE 20 28 11 15 997.9 997.9 0.0
28/09:00pm 14.5 10.5 8.9 69 2.9 NE 20 26 11 14 998.7 998.7 0.0
28/08:30pm 14.6 8.1 8.8 68 2.9 NE 33 46 18 25 998.5 998.5 0.0
28/08:00pm 14.6 8.9 8.5 67 3.1 NE 28 39 15 21 999.0 999.0 0.0
28/07:30pm 14.7 9.1 8.6 67 3.1 NE 28 41 15 22 999.2 999.2 0.0
28/07:00pm 14.9 8.8 8.4 65 3.3 ENE 30 35 16 19 999.4 999.4 0.0
28/06:30pm 14.8 9.1 8.5 66 3.2 NE 28 35 15 19 1000.6 1000.6 0.0
28/06:00pm 14.9 10.4 8.6 66 3.2 NE 22 32 12 17 1001.0 1001.0 0.0
28/05:30pm 15.3 9.6 8.5 64 3.4 NE 28 39 15 21 1001.1 1001.1 0.0
28/05:00pm 15.6 10.3 8.6 63 3.6 NE 26 39 14 21 1001.5 1001.5 0.0
28/04:30pm 15.9 9.5 8.4 61 3.8 NNE 32 44 17 24 1002.2 1002.2 0.0
28/04:13pm 16.2 9.9 8.9 62 3.7 NNE 32 50 17 27 1002.1 1002.1 0.0
28/04:00pm 16.4 9.3 7.9 57 4.3 NNE 35 50 19 27 1002.3 1002.3 0.0
28/03:30pm 16.7 10.1 8.4 58 4.2 NNE 33 50 18 27 1002.2 1002.2 0.0
28/03:02pm 17.2 10.6 8.6 57 4.4 NE 33 54 18 29 1002.6 1002.6 0.0
28/03:00pm 17.3 11.2 9.7 61 4.0 NE 32 44 17 24 1002.9 1002.9 0.0
28/02:30pm 17.6 10.4 9.0 57 4.5 NE 37 54 20 29 1003.4 1003.4 0.0
28/02:25pm 18.1 11.4 9.5 57 4.5 NE 35 54 19 29 1003.5 1003.5 0.0
28/02:00pm 19.0 13.0 10.0 56 4.8 NE 32 39 17 21 1004.0 1004.0 0.0
28/01:30pm 18.8 12.7 9.8 56 4.8 NE 32 43 17 23 1005.2 1005.2 0.0
28/01:00pm 18.6 12.7 9.1 54 5.0 NE 30 41 16 22 1006.1 1006.1 0.0
28/12:30pm 17.8 13.6 8.1 53 5.0 NNE 20 28 11 15 1007.2 1007.2 0.0
28/12:00pm 17.8 14.0 9.2 57 4.5 NE 19 26 10 14 1008.3 1008.3 0.0
28/11:30am 17.8 14.3 8.9 56 4.6 NNE 17 24 9 13 1009.3 1009.3 0.0
28/11:00am 17.3 14.1 8.4 56 4.6 NNE 15 24 8 13 1010.1 1010.1 0.0
28/10:30am 16.8 13.7 8.8 59 4.1 N 15 20 8 11 1010.6 1010.6 0.0
28/10:00am 15.6 12.1 7.1 57 4.2 N 15 20 8 11 1011.0 1011.0 0.0
28/09:30am 15.6 12.8 8.4 62 3.6 N 13 15 7 8 1011.3 1011.3 0.0
28/09:00am 14.4 11.3 8.8 69 2.8 N 15 20 8 11 1011.7 1011.7 0.0
28/08:30am 13.3 9.8 8.8 74 2.3 N 17 22 9 12 1012.0 1012.0 0.0
28/08:00am 12.0 8.8 8.5 79 1.7 N 15 20 8 11 1012.2 1012.2 0.0
28/07:30am 11.0 7.3 8.1 82 1.4 N 17 19 9 10 1012.3 1012.3 0.0
28/07:00am 7.7 4.9 6.8 94 0.4 N 11 13 6 7 1012.4 1012.4 0.0
28/06:30am 5.8 2.9 4.9 94 0.4 N 9 11 5 6 1012.3 1012.3 0.0
28/06:00am 5.9 2.6 4.5 91 0.6 N 11 13 6 7 1012.2 1012.2 0.0
28/05:30am 6.1 3.6 4.6 90 0.6 N 7 9 4 5 1012.0 1012.0 0.0
28/05:00am 6.9 3.8 5.7 92 0.5 N 11 11 6 6 1012.1 1012.1 0.0
28/04:30am 6.7 3.5 5.3 91 0.6 NNW 11 13 6 7 1012.0 1012.0 0.0
28/04:00am 6.2 2.5 4.7 90 0.6 NNW 13 13 7 7 1012.0 1012.0 0.0
28/03:30am 7.2 4.5 5.5 89 0.8 NNW 9 11 5 6 1012.0 1012.0 0.0
28/03:00am 7.0 3.8 5.3 89 0.8 NW 11 11 6 6 1012.1 1012.1 0.0
28/02:30am 6.7 3.8 4.9 88 0.8 NW 9 11 5 6 1012.2 1012.2 0.0
28/02:00am 6.1 3.2 4.7 91 0.6 NNW 9 11 5 6 1012.2 1012.2 0.0
28/01:30am 5.9 3.5 4.5 91 0.6 N 6 7 3 4 1012.2 1012.2 0.0
28/01:00am 6.2 3.7 4.5 89 0.7 N 7 7 4 4 1012.4 1012.4 0.0
28/12:30am 6.0 4.8 4.5 90 0.6 CALM 0 0 0 0 1012.5 1012.5 0.0
28/12:00am 6.0 3.5 4.6 91 0.6 NNW 7 9 4 5 1012.5 1012.5 0.0
 
Date/Time
EST
Temp
°C
App
Temp
°C
Dew
Point
°C
Rel
Hum
%
Delta-T
°C
Wind Press
QNH
hPa
Press
MSL
hPa
Rain since
9am
mm
Dir  Spd
km/h
Gust
km/h
Spd
kts
Gust
kts
27/11:30pm 6.8 4.6 5.3 90 0.7 WNW 6 7 3 4 1012.5 1012.5 0.0
27/11:00pm 7.9 5.0 4.8 81 1.4 N 9 15 5 8 1012.4 1012.4 0.0
27/10:30pm 7.4 5.0 5.2 86 1.0 N 7 9 4 5 1012.7 1012.7 0.0
27/10:00pm 7.0 5.1 5.0 87 0.9 NNE 4 7 2 4 1012.8 1012.8 0.0
27/09:30pm 8.1 4.9 5.2 82 1.3 N 11 13 6 7 1012.8 1012.8 0.0
27/09:00pm 8.4 6.2 5.2 80 1.4 NNE 6 9 3 5 1012.9 1012.9 0.0
27/08:30pm 9.5 6.8 5.7 77 1.7 NNW 9 11 5 6 1013.0 1013.0 0.0
27/08:00pm 10.3 7.3 5.9 74 2.0 N 11 11 6 6 1013.0 1013.0 0.0

Other Formats:

Comma delimited format used in spreadsheet applications
http://www.bom.gov.au/fwo/IDV60801/IDV60801.94854.axf

JavaScript Object Notation format (JSON) in row-major order
http://www.bom.gov.au/fwo/IDV60801/IDV60801.94854.json